SPQU/AQP METAR and TAF weather

Enter ICAO airport designator
Station Type Date Time Source
SPQU METAR 2020/02/19 14:00 UTC NOAA

SPQU 191400Z 21004KT 130V260 CAVOK 19/13 Q1026 NOSIG RMK PP000


Station Type Date Time Source
SPQU Decoded METAR 2020/02/19 14:00 UTC NOAA

Arequipa, Peru (SPQU) 16-19S 071-33W 2539M
Feb 19, 2020 - 09:00 AM EST / 2020.02.19 1400 UTC
Wind: from the SSW (210 degrees) at 5 MPH (4 KT) (direction variable):0
Visibility: greater than 7 mile(s):0
Temperature: 66 F (19 C)
Dew Point: 55 F (13 C)
Relative Humidity: 68%
Pressure (altimeter): 30.30 in. Hg (1026 hPa)
ob: SPQU 191400Z 21004KT 130V260 CAVOK 19/13 Q1026 NOSIG RMK PP000
cycle: 14

Station Type Date Time Source
SPQU TAF 2020/02/19 12:37 UTC NOAA

TAF SPQU 191100Z 1912/2012 04004KT 9999 BKN100 TX23/1918Z TN13/2010Z
BECMG 1915/1917 25010KT
FM200200 VRB02KT 9999 SCT015 BKN040

Example: see airport list